sensor_id;sensor_type;location;lat;lon;timestamp;temperature;humidity
80132;SHT30;69442;51.442;10.564;2023-05-07T00:00:16;15.84;58.26
80132;SHT30;69442;51.442;10.564;2023-05-07T00:02:43;15.80;58.38
80132;SHT30;69442;51.442;10.564;2023-05-07T00:05:09;15.77;58.42
80132;SHT30;69442;51.442;10.564;2023-05-07T00:07:35;15.76;58.57
80132;SHT30;69442;51.442;10.564;2023-05-07T00:10:01;15.73;58.54
80132;SHT30;69442;51.442;10.564;2023-05-07T00:12:26;15.69;58.65
80132;SHT30;69442;51.442;10.564;2023-05-07T00:14:52;15.63;58.67
80132;SHT30;69442;51.442;10.564;2023-05-07T00:17:17;15.59;58.63
80132;SHT30;69442;51.442;10.564;2023-05-07T00:19:42;15.57;58.74
80132;SHT30;69442;51.442;10.564;2023-05-07T00:22:08;15.53;58.79
80132;SHT30;69442;51.442;10.564;2023-05-07T00:24:33;15.50;58.77
80132;SHT30;69442;51.442;10.564;2023-05-07T00:26:59;15.48;58.91
80132;SHT30;69442;51.442;10.564;2023-05-07T00:29:25;15.43;58.94
80132;SHT30;69442;51.442;10.564;2023-05-07T00:31:50;15.42;58.81
80132;SHT30;69442;51.442;10.564;2023-05-07T00:34:16;15.38;58.91
80132;SHT30;69442;51.442;10.564;2023-05-07T00:36:42;15.36;58.96
80132;SHT30;69442;51.442;10.564;2023-05-07T00:39:07;15.32;58.94
80132;SHT30;69442;51.442;10.564;2023-05-07T00:41:32;15.29;59.04
80132;SHT30;69442;51.442;10.564;2023-05-07T00:43:58;15.29;59.17
80132;SHT30;69442;51.442;10.564;2023-05-07T00:46:23;15.27;59.07
80132;SHT30;69442;51.442;10.564;2023-05-07T00:48:52;15.21;59.15
80132;SHT30;69442;51.442;10.564;2023-05-07T00:51:18;15.15;59.12
80132;SHT30;69442;51.442;10.564;2023-05-07T00:53:44;15.15;59.30
80132;SHT30;69442;51.442;10.564;2023-05-07T00:56:09;15.11;59.19
80132;SHT30;69442;51.442;10.564;2023-05-07T00:58:35;15.14;59.39
80132;SHT30;69442;51.442;10.564;2023-05-07T01:01:02;15.04;59.26
80132;SHT30;69442;51.442;10.564;2023-05-07T01:03:27;15.04;59.37
80132;SHT30;69442;51.442;10.564;2023-05-07T01:05:53;15.04;59.47
80132;SHT30;69442;51.442;10.564;2023-05-07T01:08:20;14.95;59.10
80132;SHT30;69442;51.442;10.564;2023-05-07T01:10:46;14.95;59.45
80132;SHT30;69442;51.442;10.564;2023-05-07T01:13:12;14.91;59.57
80132;SHT30;69442;51.442;10.564;2023-05-07T01:15:39;14.88;59.58
80132;SHT30;69442;51.442;10.564;2023-05-07T01:18:06;14.87;59.68
80132;SHT30;69442;51.442;10.564;2023-05-07T01:20:32;14.83;59.46
80132;SHT30;69442;51.442;10.564;2023-05-07T01:22:57;14.76;59.79
80132;SHT30;69442;51.442;10.564;2023-05-07T01:25:24;14.81;59.87
80132;SHT30;69442;51.442;10.564;2023-05-07T01:27:50;14.77;59.84
80132;SHT30;69442;51.442;10.564;2023-05-07T01:30:18;14.73;59.99
80132;SHT30;69442;51.442;10.564;2023-05-07T01:32:52;14.75;60.17
80132;SHT30;69442;51.442;10.564;2023-05-07T01:35:20;14.69;59.99
80132;SHT30;69442;51.442;10.564;2023-05-07T01:37:47;14.63;60.11
80132;SHT30;69442;51.442;10.564;2023-05-07T01:40:13;14.66;59.97
80132;SHT30;69442;51.442;10.564;2023-05-07T01:42:39;14.63;60.21
80132;SHT30;69442;51.442;10.564;2023-05-07T01:45:05;14.58;60.02
80132;SHT30;69442;51.442;10.564;2023-05-07T01:47:32;14.55;60.05
80132;SHT30;69442;51.442;10.564;2023-05-07T01:49:57;14.49;60.25
80132;SHT30;69442;51.442;10.564;2023-05-07T01:52:23;14.48;60.24
80132;SHT30;69442;51.442;10.564;2023-05-07T01:54:50;14.48;60.34
80132;SHT30;69442;51.442;10.564;2023-05-07T01:57:15;14.39;60.34
80132;SHT30;69442;51.442;10.564;2023-05-07T01:59:41;14.39;60.29
80132;SHT30;69442;51.442;10.564;2023-05-07T02:02:06;14.41;60.42
80132;SHT30;69442;51.442;10.564;2023-05-07T02:04:31;14.35;60.54
80132;SHT30;69442;51.442;10.564;2023-05-07T02:06:57;14.29;60.41
80132;SHT30;69442;51.442;10.564;2023-05-07T02:09:22;14.31;60.44
80132;SHT30;69442;51.442;10.564;2023-05-07T02:11:48;14.28;60.51
80132;SHT30;69442;51.442;10.564;2023-05-07T02:14:14;14.28;60.40
80132;SHT30;69442;51.442;10.564;2023-05-07T02:16:40;14.29;60.68
80132;SHT30;69442;51.442;10.564;2023-05-07T02:19:06;14.22;60.51
80132;SHT30;69442;51.442;10.564;2023-05-07T02:21:31;14.18;60.51
80132;SHT30;69442;51.442;10.564;2023-05-07T02:23:56;14.15;60.63
80132;SHT30;69442;51.442;10.564;2023-05-07T02:26:22;14.20;60.71
80132;SHT30;69442;51.442;10.564;2023-05-07T02:28:47;14.17;60.54
80132;SHT30;69442;51.442;10.564;2023-05-07T02:31:12;14.13;60.90
80132;SHT30;69442;51.442;10.564;2023-05-07T02:33:38;14.10;60.81
80132;SHT30;69442;51.442;10.564;2023-05-07T02:36:10;14.03;60.84
80132;SHT30;69442;51.442;10.564;2023-05-07T02:38:36;14.04;60.86
80132;SHT30;69442;51.442;10.564;2023-05-07T02:41:01;14.03;60.94
80132;SHT30;69442;51.442;10.564;2023-05-07T02:43:27;14.00;60.84
80132;SHT30;69442;51.442;10.564;2023-05-07T02:46:05;13.98;60.92
80132;SHT30;69442;51.442;10.564;2023-05-07T02:48:31;14.00;60.86
80132;SHT30;69442;51.442;10.564;2023-05-07T02:50:57;13.97;60.81
80132;SHT30;69442;51.442;10.564;2023-05-07T02:53:23;13.96;60.88
80132;SHT30;69442;51.442;10.564;2023-05-07T02:55:52;13.90;60.88
80132;SHT30;69442;51.442;10.564;2023-05-07T02:58:17;13.90;61.16
80132;SHT30;69442;51.442;10.564;2023-05-07T03:00:42;13.86;61.05
80132;SHT30;69442;51.442;10.564;2023-05-07T03:03:08;13.79;61.09
80132;SHT30;69442;51.442;10.564;2023-05-07T03:05:33;13.79;61.21
80132;SHT30;69442;51.442;10.564;2023-05-07T03:07:58;13.77;61.30
80132;SHT30;69442;51.442;10.564;2023-05-07T03:10:24;13.73;61.41
80132;SHT30;69442;51.442;10.564;2023-05-07T03:12:49;13.70;61.27
80132;SHT30;69442;51.442;10.564;2023-05-07T03:15:15;13.70;61.36
80132;SHT30;69442;51.442;10.564;2023-05-07T03:17:41;13.72;61.43
80132;SHT30;69442;51.442;10.564;2023-05-07T03:20:07;13.73;61.25
80132;SHT30;69442;51.442;10.564;2023-05-07T03:22:32;13.67;61.23
80132;SHT30;69442;51.442;10.564;2023-05-07T03:24:58;13.65;61.36
80132;SHT30;69442;51.442;10.564;2023-05-07T03:27:23;13.62;61.35
80132;SHT30;69442;51.442;10.564;2023-05-07T03:29:49;13.58;61.38
80132;SHT30;69442;51.442;10.564;2023-05-07T03:32:14;13.58;61.48
80132;SHT30;69442;51.442;10.564;2023-05-07T03:34:39;13.58;61.45
80132;SHT30;69442;51.442;10.564;2023-05-07T03:37:05;13.58;61.38
80132;SHT30;69442;51.442;10.564;2023-05-07T03:39:31;13.55;61.25
80132;SHT30;69442;51.442;10.564;2023-05-07T03:41:57;13.52;61.64
80132;SHT30;69442;51.442;10.564;2023-05-07T03:44:23;13.49;61.55
80132;SHT30;69442;51.442;10.564;2023-05-07T03:46:48;13.48;61.51
80132;SHT30;69442;51.442;10.564;2023-05-07T03:49:13;13.44;61.69
80132;SHT30;69442;51.442;10.564;2023-05-07T03:51:39;13.48;61.74
80132;SHT30;69442;51.442;10.564;2023-05-07T03:54:04;13.44;61.66
80132;SHT30;69442;51.442;10.564;2023-05-07T03:56:30;13.44;61.75
80132;SHT30;69442;51.442;10.564;2023-05-07T03:58:56;13.38;61.72
80132;SHT30;69442;51.442;10.564;2023-05-07T04:01:21;13.34;61.85
80132;SHT30;69442;51.442;10.564;2023-05-07T04:03:47;13.34;61.87
80132;SHT30;69442;51.442;10.564;2023-05-07T04:06:12;13.35;61.79
80132;SHT30;69442;51.442;10.564;2023-05-07T04:08:38;13.32;61.81
80132;SHT30;69442;51.442;10.564;2023-05-07T04:11:03;13.29;61.74
80132;SHT30;69442;51.442;10.564;2023-05-07T04:13:29;13.31;61.85
80132;SHT30;69442;51.442;10.564;2023-05-07T04:15:55;13.25;62.03
80132;SHT30;69442;51.442;10.564;2023-05-07T04:18:21;13.25;62.13
80132;SHT30;69442;51.442;10.564;2023-05-07T04:20:47;13.21;61.87
80132;SHT30;69442;51.442;10.564;2023-05-07T04:23:13;13.22;62.08
80132;SHT30;69442;51.442;10.564;2023-05-07T04:25:38;13.21;62.12
80132;SHT30;69442;51.442;10.564;2023-05-07T04:28:04;13.18;62.08
80132;SHT30;69442;51.442;10.564;2023-05-07T04:30:29;13.15;62.52
80132;SHT30;69442;51.442;10.564;2023-05-07T04:32:54;13.12;62.44
80132;SHT30;69442;51.442;10.564;2023-05-07T04:35:21;13.08;62.36
80132;SHT30;69442;51.442;10.564;2023-05-07T04:37:47;13.10;62.46
80132;SHT30;69442;51.442;10.564;2023-05-07T04:40:12;13.06;62.57
80132;SHT30;69442;51.442;10.564;2023-05-07T04:42:38;13.04;62.57
80132;SHT30;69442;51.442;10.564;2023-05-07T04:45:04;13.01;62.79
80132;SHT30;69442;51.442;10.564;2023-05-07T04:47:30;12.99;62.92
80132;SHT30;69442;51.442;10.564;2023-05-07T04:49:56;12.96;62.81
80132;SHT30;69442;51.442;10.564;2023-05-07T04:52:22;12.96;62.92
80132;SHT30;69442;51.442;10.564;2023-05-07T04:54:47;12.94;62.88
80132;SHT30;69442;51.442;10.564;2023-05-07T04:57:13;12.96;62.89
80132;SHT30;69442;51.442;10.564;2023-05-07T04:59:38;12.91;62.96
80132;SHT30;69442;51.442;10.564;2023-05-07T05:02:03;12.90;62.92
80132;SHT30;69442;51.442;10.564;2023-05-07T05:04:32;12.91;63.02
80132;SHT30;69442;51.442;10.564;2023-05-07T05:06:57;12.90;63.15
80132;SHT30;69442;51.442;10.564;2023-05-07T05:09:23;12.90;63.27
80132;SHT30;69442;51.442;10.564;2023-05-07T05:11:48;12.86;63.17
80132;SHT30;69442;51.442;10.564;2023-05-07T05:14:14;12.83;63.26
80132;SHT30;69442;51.442;10.564;2023-05-07T05:16:39;12.86;63.34
80132;SHT30;69442;51.442;10.564;2023-05-07T05:19:04;12.79;63.19
80132;SHT30;69442;51.442;10.564;2023-05-07T05:21:31;12.79;63.28
80132;SHT30;69442;51.442;10.564;2023-05-07T05:23:57;12.80;63.47
80132;SHT30;69442;51.442;10.564;2023-05-07T05:26:22;12.79;63.47
80132;SHT30;69442;51.442;10.564;2023-05-07T05:28:47;12.75;63.42
80132;SHT30;69442;51.442;10.564;2023-05-07T05:31:13;12.72;63.43
80132;SHT30;69442;51.442;10.564;2023-05-07T05:33:39;12.70;63.42
80132;SHT30;69442;51.442;10.564;2023-05-07T05:36:05;12.70;63.46
80132;SHT30;69442;51.442;10.564;2023-05-07T05:38:31;12.70;63.57
80132;SHT30;69442;51.442;10.564;2023-05-07T05:40:56;12.69;63.58
80132;SHT30;69442;51.442;10.564;2023-05-07T05:43:22;12.66;63.62
80132;SHT30;69442;51.442;10.564;2023-05-07T05:45:47;12.60;63.72
80132;SHT30;69442;51.442;10.564;2023-05-07T05:48:12;12.59;63.72
80132;SHT30;69442;51.442;10.564;2023-05-07T05:50:38;12.62;63.76
80132;SHT30;69442;51.442;10.564;2023-05-07T05:53:03;12.60;63.93
80132;SHT30;69442;51.442;10.564;2023-05-07T05:55:29;12.56;63.88
80132;SHT30;69442;51.442;10.564;2023-05-07T05:57:55;12.56;63.96
80132;SHT30;69442;51.442;10.564;2023-05-07T06:00:21;12.55;64.03
80132;SHT30;69442;51.442;10.564;2023-05-07T06:02:48;12.55;63.98
80132;SHT30;69442;51.442;10.564;2023-05-07T06:05:13;12.50;63.74
80132;SHT30;69442;51.442;10.564;2023-05-07T06:07:39;12.53;63.84
80132;SHT30;69442;51.442;10.564;2023-05-07T06:10:04;12.56;63.89
80132;SHT30;69442;51.442;10.564;2023-05-07T06:12:30;12.55;63.90
80132;SHT30;69442;51.442;10.564;2023-05-07T06:14:55;12.55;64.14
80132;SHT30;69442;51.442;10.564;2023-05-07T06:17:21;12.52;64.06
80132;SHT30;69442;51.442;10.564;2023-05-07T06:19:46;12.53;64.27
80132;SHT30;69442;51.442;10.564;2023-05-07T06:22:11;12.53;64.29
80132;SHT30;69442;51.442;10.564;2023-05-07T06:24:37;12.56;64.59
80132;SHT30;69442;51.442;10.564;2023-05-07T06:27:02;12.49;64.37
80132;SHT30;69442;51.442;10.564;2023-05-07T06:29:28;12.50;64.35
80132;SHT30;69442;51.442;10.564;2023-05-07T06:31:56;12.50;64.40
80132;SHT30;69442;51.442;10.564;2023-05-07T06:34:21;12.48;64.40
80132;SHT30;69442;51.442;10.564;2023-05-07T06:36:47;12.46;64.46
80132;SHT30;69442;51.442;10.564;2023-05-07T06:39:12;12.44;64.45
80132;SHT30;69442;51.442;10.564;2023-05-07T06:41:38;12.44;64.46
80132;SHT30;69442;51.442;10.564;2023-05-07T06:44:04;12.42;64.56
80132;SHT30;69442;51.442;10.564;2023-05-07T06:46:30;12.42;64.44
80132;SHT30;69442;51.442;10.564;2023-05-07T06:48:56;12.41;64.38
80132;SHT30;69442;51.442;10.564;2023-05-07T06:51:22;12.42;64.55
80132;SHT30;69442;51.442;10.564;2023-05-07T06:53:47;12.42;64.63
80132;SHT30;69442;51.442;10.564;2023-05-07T06:56:13;12.44;64.66
80132;SHT30;69442;51.442;10.564;2023-05-07T06:58:38;12.42;64.84
80132;SHT30;69442;51.442;10.564;2023-05-07T07:01:03;12.41;64.60
80132;SHT30;69442;51.442;10.564;2023-05-07T07:03:30;12.44;64.60
80132;SHT30;69442;51.442;10.564;2023-05-07T07:05:55;12.42;64.66
80132;SHT30;69442;51.442;10.564;2023-05-07T07:08:21;12.42;64.70
80132;SHT30;69442;51.442;10.564;2023-05-07T07:10:47;12.46;64.86
80132;SHT30;69442;51.442;10.564;2023-05-07T07:13:13;12.42;64.82
80132;SHT30;69442;51.442;10.564;2023-05-07T07:15:38;12.42;64.73
80132;SHT30;69442;51.442;10.564;2023-05-07T07:18:05;12.39;64.94
80132;SHT30;69442;51.442;10.564;2023-05-07T07:20:30;12.39;65.05
80132;SHT30;69442;51.442;10.564;2023-05-07T07:22:56;12.42;65.10
80132;SHT30;69442;51.442;10.564;2023-05-07T07:25:21;12.38;65.06
80132;SHT30;69442;51.442;10.564;2023-05-07T07:27:46;12.44;65.23
80132;SHT30;69442;51.442;10.564;2023-05-07T07:30:12;12.44;65.22
80132;SHT30;69442;51.442;10.564;2023-05-07T07:32:37;12.41;65.14
80132;SHT30;69442;51.442;10.564;2023-05-07T07:35:03;12.42;65.22
80132;SHT30;69442;51.442;10.564;2023-05-07T07:37:28;12.42;65.26
80132;SHT30;69442;51.442;10.564;2023-05-07T07:39:55;12.45;65.15
80132;SHT30;69442;51.442;10.564;2023-05-07T07:42:20;12.44;65.31
80132;SHT30;69442;51.442;10.564;2023-05-07T07:44:45;12.45;65.27
80132;SHT30;69442;51.442;10.564;2023-05-07T07:47:11;12.45;65.31
80132;SHT30;69442;51.442;10.564;2023-05-07T07:49:39;12.46;65.38
80132;SHT30;69442;51.442;10.564;2023-05-07T07:52:04;12.48;65.92
80132;SHT30;69442;51.442;10.564;2023-05-07T07:54:30;12.46;66.15
80132;SHT30;69442;51.442;10.564;2023-05-07T07:56:55;12.50;66.09
80132;SHT30;69442;51.442;10.564;2023-05-07T07:59:21;12.49;66.11
80132;SHT30;69442;51.442;10.564;2023-05-07T08:01:46;12.49;66.08
80132;SHT30;69442;51.442;10.564;2023-05-07T08:04:15;12.50;66.15
80132;SHT30;69442;51.442;10.564;2023-05-07T08:06:40;12.52;66.32
80132;SHT30;69442;51.442;10.564;2023-05-07T08:09:06;12.55;66.09
80132;SHT30;69442;51.442;10.564;2023-05-07T08:11:32;12.53;65.59
80132;SHT30;69442;51.442;10.564;2023-05-07T08:13:57;12.57;65.50
80132;SHT30;69442;51.442;10.564;2023-05-07T08:16:23;12.60;65.59
80132;SHT30;69442;51.442;10.564;2023-05-07T08:18:48;12.60;65.44
80132;SHT30;69442;51.442;10.564;2023-05-07T08:21:13;12.62;65.33
80132;SHT30;69442;51.442;10.564;2023-05-07T08:23:39;12.66;65.27
80132;SHT30;69442;51.442;10.564;2023-05-07T08:26:04;12.67;65.31
80132;SHT30;69442;51.442;10.564;2023-05-07T08:28:30;12.67;65.18
80132;SHT30;69442;51.442;10.564;2023-05-07T08:30:55;12.69;65.30
80132;SHT30;69442;51.442;10.564;2023-05-07T08:33:21;12.70;65.06
80132;SHT30;69442;51.442;10.564;2023-05-07T08:35:47;12.73;65.02
80132;SHT30;69442;51.442;10.564;2023-05-07T08:38:12;12.73;65.21
80132;SHT30;69442;51.442;10.564;2023-05-07T08:40:38;12.73;64.99
80132;SHT30;69442;51.442;10.564;2023-05-07T08:43:07;12.76;64.92
80132;SHT30;69442;51.442;10.564;2023-05-07T08:45:34;12.80;64.92
80132;SHT30;69442;51.442;10.564;2023-05-07T08:48:02;12.83;64.65
80132;SHT30;69442;51.442;10.564;2023-05-07T08:50:30;12.87;64.53
80132;SHT30;69442;51.442;10.564;2023-05-07T08:52:56;12.87;64.46
80132;SHT30;69442;51.442;10.564;2023-05-07T08:55:24;12.90;64.53
80132;SHT30;69442;51.442;10.564;2023-05-07T08:57:50;12.93;64.32
80132;SHT30;69442;51.442;10.564;2023-05-07T09:00:17;12.94;64.29
80132;SHT30;69442;51.442;10.564;2023-05-07T09:02:43;12.97;64.23
80132;SHT30;69442;51.442;10.564;2023-05-07T09:05:08;12.97;64.30
80132;SHT30;69442;51.442;10.564;2023-05-07T09:07:34;13.00;64.29
80132;SHT30;69442;51.442;10.564;2023-05-07T09:10:02;13.04;64.14
80132;SHT30;69442;51.442;10.564;2023-05-07T09:12:27;13.08;64.08
80132;SHT30;69442;51.442;10.564;2023-05-07T09:14:53;13.10;64.09
80132;SHT30;69442;51.442;10.564;2023-05-07T09:17:18;13.10;64.01
80132;SHT30;69442;51.442;10.564;2023-05-07T09:19:44;13.14;63.97
80132;SHT30;69442;51.442;10.564;2023-05-07T09:22:10;13.17;63.93
80132;SHT30;69442;51.442;10.564;2023-05-07T09:24:37;13.17;63.90
80132;SHT30;69442;51.442;10.564;2023-05-07T09:27:06;13.21;63.89
80132;SHT30;69442;51.442;10.564;2023-05-07T09:29:31;13.27;63.74
80132;SHT30;69442;51.442;10.564;2023-05-07T09:32:05;13.28;63.59
80132;SHT30;69442;51.442;10.564;2023-05-07T09:34:31;13.32;63.44
80132;SHT30;69442;51.442;10.564;2023-05-07T09:36:59;13.32;63.48
80132;SHT30;69442;51.442;10.564;2023-05-07T09:39:25;13.36;63.30
80132;SHT30;69442;51.442;10.564;2023-05-07T09:41:51;13.39;63.26
80132;SHT30;69442;51.442;10.564;2023-05-07T09:44:20;13.42;63.28
80132;SHT30;69442;51.442;10.564;2023-05-07T09:46:47;13.45;63.15
80132;SHT30;69442;51.442;10.564;2023-05-07T09:49:22;13.48;63.28
80132;SHT30;69442;51.442;10.564;2023-05-07T09:51:49;13.49;63.16
80132;SHT30;69442;51.442;10.564;2023-05-07T09:54:15;13.52;63.18
80132;SHT30;69442;51.442;10.564;2023-05-07T09:56:43;13.55;62.98
80132;SHT30;69442;51.442;10.564;2023-05-07T09:59:11;13.56;62.83
80132;SHT30;69442;51.442;10.564;2023-05-07T10:01:38;13.59;62.82
80132;SHT30;69442;51.442;10.564;2023-05-07T10:04:05;13.62;62.99
80132;SHT30;69442;51.442;10.564;2023-05-07T10:06:34;13.62;62.96
80132;SHT30;69442;51.442;10.564;2023-05-07T10:09:00;13.65;62.76
80132;SHT30;69442;51.442;10.564;2023-05-07T10:11:26;13.66;62.85
80132;SHT30;69442;51.442;10.564;2023-05-07T10:13:53;13.69;62.79
80132;SHT30;69442;51.442;10.564;2023-05-07T10:16:19;13.67;62.87
80132;SHT30;69442;51.442;10.564;2023-05-07T10:18:46;13.69;62.98
80132;SHT30;69442;51.442;10.564;2023-05-07T10:21:18;13.69;62.78
80132;SHT30;69442;51.442;10.564;2023-05-07T10:23:45;13.72;62.84
80132;SHT30;69442;51.442;10.564;2023-05-07T10:26:12;13.70;62.98
80132;SHT30;69442;51.442;10.564;2023-05-07T10:28:39;13.74;62.82
80132;SHT30;69442;51.442;10.564;2023-05-07T10:33:59;13.73;62.78
80132;SHT30;69442;51.442;10.564;2023-05-07T10:36:26;13.76;62.87
80132;SHT30;69442;51.442;10.564;2023-05-07T10:38:54;13.80;62.76
80132;SHT30;69442;51.442;10.564;2023-05-07T10:41:20;13.80;62.85
80132;SHT30;69442;51.442;10.564;2023-05-07T10:43:46;13.77;62.79
80132;SHT30;69442;51.442;10.564;2023-05-07T10:46:22;13.77;62.72
80132;SHT30;69442;51.442;10.564;2023-05-07T10:51:30;13.80;62.76
80132;SHT30;69442;51.442;10.564;2023-05-07T10:54:19;13.81;62.72
80132;SHT30;69442;51.442;10.564;2023-05-07T10:56:45;13.83;62.75
80132;SHT30;69442;51.442;10.564;2023-05-07T11:02:04;13.86;62.66
80132;SHT30;69442;51.442;10.564;2023-05-07T11:04:31;13.90;62.61
80132;SHT30;69442;51.442;10.564;2023-05-07T11:15:10;13.91;62.38
80132;SHT30;69442;51.442;10.564;2023-05-07T11:17:55;13.94;62.49
80132;SHT30;69442;51.442;10.564;2023-05-07T11:20:20;13.94;62.48
80132;SHT30;69442;51.442;10.564;2023-05-07T11:22:47;13.94;62.40
80132;SHT30;69442;51.442;10.564;2023-05-07T11:25:17;13.98;62.36
80132;SHT30;69442;51.442;10.564;2023-05-07T11:27:44;14.00;62.26
80132;SHT30;69442;51.442;10.564;2023-05-07T11:30:10;14.00;62.22
80132;SHT30;69442;51.442;10.564;2023-05-07T11:32:36;14.03;62.30
80132;SHT30;69442;51.442;10.564;2023-05-07T11:35:02;14.03;62.25
80132;SHT30;69442;51.442;10.564;2023-05-07T11:37:28;14.07;62.15
80132;SHT30;69442;51.442;10.564;2023-05-07T11:40:08;14.10;62.14
80132;SHT30;69442;51.442;10.564;2023-05-07T11:42:37;14.14;61.97
80132;SHT30;69442;51.442;10.564;2023-05-07T11:45:03;14.17;61.95
80132;SHT30;69442;51.442;10.564;2023-05-07T11:47:32;14.18;61.95
80132;SHT30;69442;51.442;10.564;2023-05-07T11:50:02;14.21;61.99
80132;SHT30;69442;51.442;10.564;2023-05-07T11:52:28;14.24;61.97
80132;SHT30;69442;51.442;10.564;2023-05-07T11:54:56;14.25;61.88
80132;SHT30;69442;51.442;10.564;2023-05-07T11:57:22;14.29;61.89
80132;SHT30;69442;51.442;10.564;2023-05-07T11:59:55;14.31;61.70
80132;SHT30;69442;51.442;10.564;2023-05-07T12:02:21;14.36;61.72
80132;SHT30;69442;51.442;10.564;2023-05-07T12:04:46;14.38;61.51
80132;SHT30;69442;51.442;10.564;2023-05-07T12:07:15;14.42;61.43
80132;SHT30;69442;51.442;10.564;2023-05-07T12:09:45;14.49;61.32
80132;SHT30;69442;51.442;10.564;2023-05-07T12:12:11;14.50;61.25
80132;SHT30;69442;51.442;10.564;2023-05-07T12:14:40;14.52;61.35
80132;SHT30;69442;51.442;10.564;2023-05-07T12:17:07;14.58;61.21
80132;SHT30;69442;51.442;10.564;2023-05-07T12:19:34;14.56;61.17
80132;SHT30;69442;51.442;10.564;2023-05-07T12:22:02;14.59;61.15
80132;SHT30;69442;51.442;10.564;2023-05-07T12:24:27;14.62;61.09
80132;SHT30;69442;51.442;10.564;2023-05-07T12:26:53;14.60;61.09
80132;SHT30;69442;51.442;10.564;2023-05-07T12:29:21;14.66;61.06
80132;SHT30;69442;51.442;10.564;2023-05-07T12:31:47;14.69;60.93
80132;SHT30;69442;51.442;10.564;2023-05-07T12:34:15;14.70;60.85
80132;SHT30;69442;51.442;10.564;2023-05-07T12:36:40;14.73;60.83
80132;SHT30;69442;51.442;10.564;2023-05-07T12:39:07;14.75;60.79
80132;SHT30;69442;51.442;10.564;2023-05-07T12:41:53;14.77;60.73
80132;SHT30;69442;51.442;10.564;2023-05-07T12:44:22;14.83;60.64
80132;SHT30;69442;51.442;10.564;2023-05-07T12:46:48;14.84;60.58
80132;SHT30;69442;51.442;10.564;2023-05-07T12:49:13;14.87;60.55
80132;SHT30;69442;51.442;10.564;2023-05-07T12:51:38;14.91;60.51
80132;SHT30;69442;51.442;10.564;2023-05-07T12:54:04;14.94;60.46
80132;SHT30;69442;51.442;10.564;2023-05-07T12:56:35;14.98;60.40
80132;SHT30;69442;51.442;10.564;2023-05-07T12:59:01;15.04;60.25
80132;SHT30;69442;51.442;10.564;2023-05-07T13:01:30;15.07;60.17
80132;SHT30;69442;51.442;10.564;2023-05-07T13:04:03;15.11;60.08
80132;SHT30;69442;51.442;10.564;2023-05-07T13:06:30;15.15;60.04
80132;SHT30;69442;51.442;10.564;2023-05-07T13:08:56;15.18;59.94
80132;SHT30;69442;51.442;10.564;2023-05-07T13:11:22;15.22;59.93
80132;SHT30;69442;51.442;10.564;2023-05-07T13:13:48;15.24;59.83
80132;SHT30;69442;51.442;10.564;2023-05-07T13:16:13;15.28;59.81
80132;SHT30;69442;51.442;10.564;2023-05-07T13:18:39;15.31;59.78
80132;SHT30;69442;51.442;10.564;2023-05-07T13:21:05;15.35;59.77
80132;SHT30;69442;51.442;10.564;2023-05-07T13:23:31;15.35;59.71
80132;SHT30;69442;51.442;10.564;2023-05-07T13:25:56;15.39;59.72
80132;SHT30;69442;51.442;10.564;2023-05-07T13:28:23;15.43;59.68
80132;SHT30;69442;51.442;10.564;2023-05-07T13:30:49;15.48;59.61
80132;SHT30;69442;51.442;10.564;2023-05-07T13:33:17;15.48;59.51
80132;SHT30;69442;51.442;10.564;2023-05-07T13:35:43;15.55;59.51
80132;SHT30;69442;51.442;10.564;2023-05-07T13:38:08;15.59;59.45
80132;SHT30;69442;51.442;10.564;2023-05-07T13:40:34;15.63;59.39
80132;SHT30;69442;51.442;10.564;2023-05-07T13:43:00;15.70;59.30
80132;SHT30;69442;51.442;10.564;2023-05-07T13:45:30;15.73;59.25
80132;SHT30;69442;51.442;10.564;2023-05-07T13:47:56;15.77;59.16
80132;SHT30;69442;51.442;10.564;2023-05-07T13:50:22;15.82;59.03
80132;SHT30;69442;51.442;10.564;2023-05-07T13:52:47;15.87;59.00
80132;SHT30;69442;51.442;10.564;2023-05-07T13:55:17;15.93;58.90
80132;SHT30;69442;51.442;10.564;2023-05-07T13:57:43;15.98;58.89
80132;SHT30;69442;51.442;10.564;2023-05-07T14:00:08;16.01;58.80
80132;SHT30;69442;51.442;10.564;2023-05-07T14:02:34;16.07;58.73
80132;SHT30;69442;51.442;10.564;2023-05-07T14:05:00;16.11;58.64
80132;SHT30;69442;51.442;10.564;2023-05-07T14:07:25;16.14;58.49
80132;SHT30;69442;51.442;10.564;2023-05-07T14:09:50;16.18;58.56
80132;SHT30;69442;51.442;10.564;2023-05-07T14:12:16;16.25;58.48
80132;SHT30;69442;51.442;10.564;2023-05-07T14:14:41;16.30;58.36
80132;SHT30;69442;51.442;10.564;2023-05-07T14:17:06;16.35;58.31
80132;SHT30;69442;51.442;10.564;2023-05-07T14:19:33;16.41;58.19
80132;SHT30;69442;51.442;10.564;2023-05-07T14:21:58;16.43;58.11
80132;SHT30;69442;51.442;10.564;2023-05-07T14:24:24;16.46;58.09
80132;SHT30;69442;51.442;10.564;2023-05-07T14:26:49;16.48;58.05
80132;SHT30;69442;51.442;10.564;2023-05-07T14:29:16;16.51;57.98
80132;SHT30;69442;51.442;10.564;2023-05-07T14:31:44;16.55;57.97
80132;SHT30;69442;51.442;10.564;2023-05-07T14:34:10;16.55;57.95
80132;SHT30;69442;51.442;10.564;2023-05-07T14:36:35;16.59;57.91
80132;SHT30;69442;51.442;10.564;2023-05-07T14:39:01;16.60;57.84
80132;SHT30;69442;51.442;10.564;2023-05-07T14:41:26;16.60;57.82
80132;SHT30;69442;51.442;10.564;2023-05-07T14:43:51;16.63;57.81
80132;SHT30;69442;51.442;10.564;2023-05-07T14:46:17;16.64;57.82
80132;SHT30;69442;51.442;10.564;2023-05-07T14:48:44;16.67;57.86
80132;SHT30;69442;51.442;10.564;2023-05-07T14:51:10;16.66;57.92
80132;SHT30;69442;51.442;10.564;2023-05-07T14:53:36;16.67;57.78
80132;SHT30;69442;51.442;10.564;2023-05-07T14:56:01;16.69;57.78
80132;SHT30;69442;51.442;10.564;2023-05-07T14:58:27;16.69;57.66
80132;SHT30;69442;51.442;10.564;2023-05-07T15:00:52;16.70;57.71
80132;SHT30;69442;51.442;10.564;2023-05-07T15:03:18;16.71;57.84
80132;SHT30;69442;51.442;10.564;2023-05-07T15:05:43;16.74;57.80
80132;SHT30;69442;51.442;10.564;2023-05-07T15:08:09;16.76;57.75
80132;SHT30;69442;51.442;10.564;2023-05-07T15:10:36;16.71;57.83
80132;SHT30;69442;51.442;10.564;2023-05-07T15:13:05;16.74;57.57
80132;SHT30;69442;51.442;10.564;2023-05-07T15:15:31;16.73;57.55
80132;SHT30;69442;51.442;10.564;2023-05-07T15:17:56;16.74;57.55
80132;SHT30;69442;51.442;10.564;2023-05-07T15:20:21;16.73;57.56
80132;SHT30;69442;51.442;10.564;2023-05-07T15:22:47;16.70;57.69
80132;SHT30;69442;51.442;10.564;2023-05-07T15:25:12;16.69;57.63